createdAt,value
2019-05-18T00:00:10.778Z,45.52
2019-05-18T00:02:44.986Z,45.52
2019-05-18T00:05:19.773Z,45.50
2019-05-18T00:07:55.511Z,45.49
2019-05-18T00:10:29.289Z,45.50
2019-05-18T00:13:03.039Z,45.48
2019-05-18T00:15:36.722Z,45.46
2019-05-18T00:18:10.527Z,45.46
2019-05-18T00:20:44.160Z,45.50
2019-05-18T00:23:17.766Z,45.49
2019-05-18T00:25:51.760Z,45.50
2019-05-18T00:28:25.347Z,45.45
2019-05-18T00:31:00.304Z,45.41
2019-05-18T00:33:35.523Z,45.42
2019-05-18T00:36:09.479Z,45.40
2019-05-18T00:38:43.200Z,45.36
2019-05-18T00:41:16.918Z,45.38
2019-05-18T00:43:51.649Z,45.36
2019-05-18T00:46:25.412Z,45.34
2019-05-18T00:48:59.169Z,45.33
2019-05-18T00:51:33.032Z,45.29
2019-05-18T00:54:08.409Z,45.29
2019-05-18T00:56:42.272Z,45.28
2019-05-18T00:59:17.077Z,45.24
2019-05-18T01:01:50.777Z,45.24
2019-05-18T01:04:26.301Z,45.24
2019-05-18T01:07:00.004Z,45.23
2019-05-18T01:09:33.863Z,45.20
2019-05-18T01:12:07.657Z,45.19
2019-05-18T01:14:42.648Z,45.19
2019-05-18T01:17:16.502Z,45.19
2019-05-18T01:19:50.239Z,45.17
2019-05-18T01:22:23.933Z,45.16
2019-05-18T01:24:57.743Z,45.13
2019-05-18T01:27:31.923Z,45.12
2019-05-18T01:30:06.659Z,45.08
2019-05-18T01:32:40.423Z,45.10
2019-05-18T01:35:14.769Z,45.07
2019-05-18T01:37:50.314Z,45.07
2019-05-18T01:40:25.801Z,45.06
2019-05-18T01:42:59.564Z,45.04
2019-05-18T01:45:33.273Z,45.07
2019-05-18T01:48:13.898Z,45.03
2019-05-18T01:50:44.707Z,45.01
2019-05-18T01:53:18.515Z,45.00
2019-05-18T01:55:52.313Z,44.99
2019-05-18T01:58:26.023Z,44.99
2019-05-18T02:00:59.760Z,44.97
2019-05-18T02:03:33.497Z,44.92
2019-05-18T02:06:07.378Z,44.97
2019-05-18T02:08:41.768Z,44.96
2019-05-18T02:11:15.598Z,44.94
2019-05-18T02:13:49.309Z,44.94
2019-05-18T02:16:23.008Z,44.90
2019-05-18T02:18:56.719Z,44.89
2019-05-18T02:21:30.501Z,44.90
2019-05-18T02:24:04.388Z,44.88
2019-05-18T02:26:38.208Z,44.87
2019-05-18T02:29:12.675Z,44.84
2019-05-18T02:31:46.402Z,44.83
2019-05-18T02:34:20.147Z,44.81
2019-05-18T02:36:53.755Z,44.82
2019-05-18T02:39:27.578Z,44.82
2019-05-18T02:42:01.356Z,44.79
2019-05-18T02:44:35.089Z,44.79
2019-05-18T02:47:08.821Z,44.78
2019-05-18T02:49:42.797Z,44.77
2019-05-18T02:52:16.551Z,44.75
2019-05-18T02:54:50.234Z,44.76
2019-05-18T02:57:23.994Z,44.71
2019-05-18T02:59:57.841Z,44.72
2019-05-18T03:02:31.931Z,44.71
2019-05-18T03:05:06.641Z,44.65
2019-05-18T03:07:40.419Z,44.67
2019-05-18T03:10:14.102Z,44.65
2019-05-18T03:12:47.859Z,44.67
2019-05-18T03:15:21.827Z,44.65
2019-05-18T03:17:55.552Z,44.62
2019-05-18T03:20:29.290Z,44.59
2019-05-18T03:23:03.067Z,44.61
2019-05-18T03:25:37.955Z,44.52
2019-05-18T03:28:11.832Z,44.59
2019-05-18T03:30:45.665Z,44.57
2019-05-18T03:33:19.984Z,44.54
2019-05-18T03:35:53.769Z,44.54
2019-05-18T03:38:27.520Z,44.53
2019-05-18T03:41:01.231Z,44.50
2019-05-18T03:43:34.965Z,44.43
2019-05-18T03:46:08.642Z,44.48
2019-05-18T03:48:44.181Z,44.46
2019-05-18T03:51:17.826Z,44.47
2019-05-18T03:53:51.571Z,44.45
2019-05-18T03:56:25.275Z,44.45
2019-05-18T03:58:58.890Z,44.40
2019-05-18T04:01:32.627Z,44.39
2019-05-18T04:04:06.332Z,44.38
2019-05-18T04:06:40.153Z,44.38
2019-05-18T04:09:13.874Z,44.37
2019-05-18T04:11:47.566Z,44.34
2019-05-18T04:14:21.324Z,44.35
2019-05-18T04:16:57.881Z,44.33
2019-05-18T04:19:45.804Z,44.32
2019-05-18T04:22:07.199Z,44.26
2019-05-18T04:24:42.712Z,44.26
2019-05-18T04:27:16.399Z,44.27
2019-05-18T04:29:50.210Z,44.27
2019-05-18T04:32:23.886Z,44.24
2019-05-18T04:34:57.633Z,44.22
2019-05-18T04:37:31.477Z,44.19
2019-05-18T04:40:05.434Z,44.18
2019-05-18T04:42:39.061Z,44.17
2019-05-18T04:45:12.895Z,44.15
2019-05-18T04:47:48.599Z,44.16
2019-05-18T04:50:22.385Z,44.16
2019-05-18T04:52:56.019Z,44.13
2019-05-18T04:55:29.757Z,44.13
2019-05-18T04:58:03.445Z,44.09
2019-05-18T05:00:38.271Z,44.09
2019-05-18T05:03:12.367Z,44.11
2019-05-18T05:05:46.113Z,44.09
2019-05-18T05:08:19.867Z,43.85
2019-05-18T05:10:53.568Z,43.93
2019-05-18T05:13:27.283Z,44.00
2019-05-18T05:16:01.031Z,44.02
2019-05-18T05:18:34.856Z,44.08
2019-05-18T05:21:08.494Z,44.09
2019-05-18T05:23:42.473Z,44.12
2019-05-18T05:26:16.110Z,44.06
2019-05-18T05:28:49.825Z,44.06
2019-05-18T05:31:23.523Z,43.98
2019-05-18T05:33:57.226Z,44.10
2019-05-18T05:36:30.940Z,44.11
2019-05-18T05:39:06.185Z,44.08
2019-05-18T05:41:39.889Z,43.99
2019-05-18T05:44:13.637Z,44.12
2019-05-18T05:46:47.348Z,44.11
2019-05-18T05:49:22.487Z,44.05
2019-05-18T05:51:56.087Z,44.08
2019-05-18T05:54:29.813Z,44.01
2019-05-18T05:57:03.633Z,44.02
2019-05-18T05:59:37.345Z,44.08
2019-05-18T06:02:11.233Z,44.10
2019-05-18T06:04:44.985Z,43.78
2019-05-18T06:07:18.719Z,43.96
2019-05-18T06:09:52.693Z,43.99
2019-05-18T06:12:26.443Z,43.99
2019-05-18T06:15:00.223Z,44.00
2019-05-18T06:17:33.955Z,44.03
2019-05-18T06:20:07.869Z,44.01
2019-05-18T06:22:43.009Z,44.06
2019-05-18T06:25:16.776Z,43.82
2019-05-18T06:27:50.441Z,43.95
2019-05-18T06:30:24.134Z,44.08
2019-05-18T06:32:57.802Z,44.00
2019-05-18T06:35:32.108Z,43.73
2019-05-18T06:38:06.104Z,43.90
2019-05-18T06:40:39.793Z,43.96
2019-05-18T06:43:13.694Z,43.96
2019-05-18T06:45:47.519Z,43.96
2019-05-18T06:48:21.705Z,43.71
2019-05-18T06:51:06.879Z,43.77
2019-05-18T06:53:32.890Z,43.75
2019-05-18T06:56:06.626Z,43.67
2019-05-18T06:58:40.507Z,43.78
2019-05-18T07:01:14.154Z,43.57
2019-05-18T07:03:47.909Z,43.63
2019-05-18T07:06:21.614Z,43.69
2019-05-18T07:08:55.365Z,43.78
2019-05-18T07:11:29.344Z,43.86
2019-05-18T07:14:03.859Z,43.50
2019-05-18T07:16:38.560Z,43.50
2019-05-18T07:19:12.572Z,43.57
2019-05-18T07:21:46.175Z,43.52
2019-05-18T07:24:19.887Z,43.51
2019-05-18T07:26:53.597Z,43.52
2019-05-18T07:29:27.320Z,43.52
2019-05-18T07:32:01.813Z,43.67
2019-05-18T07:34:35.505Z,43.70
2019-05-18T07:37:09.370Z,43.71
2019-05-18T07:39:43.105Z,43.66
2019-05-18T07:42:16.832Z,43.60
2019-05-18T07:44:50.485Z,43.72
2019-05-18T07:47:24.205Z,43.52
2019-05-18T07:49:57.972Z,43.65
2019-05-18T07:52:31.720Z,43.97
2019-05-18T07:55:05.518Z,43.91
2019-05-18T07:57:39.279Z,44.00
2019-05-18T08:00:14.401Z,43.97
2019-05-18T08:02:49.250Z,43.91
2019-05-18T08:05:23.087Z,43.78
2019-05-18T08:07:56.831Z,43.67
2019-05-18T08:10:37.922Z,43.86
2019-05-18T08:13:11.935Z,44.00
2019-05-18T08:15:45.611Z,43.81
2019-05-18T08:18:19.362Z,44.03
2019-05-18T08:20:53.058Z,43.98
2019-05-18T08:23:26.800Z,43.79
2019-05-18T08:26:00.491Z,43.76
2019-05-18T08:28:34.218Z,43.86
2019-05-18T08:31:08.016Z,43.71
2019-05-18T08:33:42.122Z,43.71
2019-05-18T08:36:15.832Z,43.74
2019-05-18T08:38:49.667Z,43.79
2019-05-18T08:41:23.271Z,43.74
2019-05-18T08:43:57.250Z,43.92
2019-05-18T08:46:30.958Z,43.95
2019-05-18T08:49:04.699Z,43.89
2019-05-18T08:51:38.569Z,44.14
2019-05-18T08:54:12.656Z,44.29
2019-05-18T08:56:46.551Z,44.15
2019-05-18T08:59:20.153Z,44.37
2019-05-18T09:01:53.894Z,44.10
2019-05-18T09:04:29.449Z,44.04
2019-05-18T09:07:03.170Z,44.04
2019-05-18T09:09:36.989Z,43.94
2019-05-18T09:12:10.719Z,43.96
2019-05-18T09:14:44.507Z,43.93
2019-05-18T09:17:18.282Z,43.92
2019-05-18T09:19:54.125Z,44.26
2019-05-18T09:22:27.869Z,43.97
2019-05-18T09:25:02.222Z,44.14
2019-05-18T09:27:36.165Z,44.37
2019-05-18T09:30:10.199Z,44.41
2019-05-18T09:32:43.924Z,44.45
2019-05-18T09:35:17.806Z,44.55
2019-05-18T09:37:51.499Z,44.51
2019-05-18T09:40:25.455Z,44.65
2019-05-18T09:42:59.174Z,44.47
2019-05-18T09:45:33.050Z,44.51
2019-05-18T09:48:06.804Z,44.52
2019-05-18T09:50:40.549Z,44.45
2019-05-18T09:53:14.365Z,44.83
2019-05-18T09:55:48.098Z,45.28
2019-05-18T09:58:22.118Z,45.59
2019-05-18T10:00:57.428Z,45.35
2019-05-18T10:03:31.084Z,45.65
2019-05-18T10:06:04.749Z,45.73
2019-05-18T10:08:38.527Z,45.74
2019-05-18T10:11:12.641Z,44.99
2019-05-18T10:13:46.331Z,44.98
2019-05-18T10:16:20.210Z,44.72
2019-05-18T10:18:53.935Z,44.58
2019-05-18T10:21:27.710Z,44.49
2019-05-18T10:24:01.688Z,44.41
2019-05-18T10:26:35.382Z,44.38
2019-05-18T10:29:09.142Z,44.33
2019-05-18T10:31:44.424Z,44.36
2019-05-18T10:34:18.329Z,44.35
2019-05-18T10:36:52.045Z,44.27
2019-05-18T10:39:25.741Z,44.31
2019-05-18T10:41:59.547Z,44.27
2019-05-18T10:44:33.613Z,44.29
2019-05-18T10:47:08.461Z,44.28
2019-05-18T10:49:42.398Z,44.51
2019-05-18T10:52:16.157Z,44.50
2019-05-18T10:54:50.010Z,45.04
2019-05-18T10:57:23.777Z,44.54
2019-05-18T10:59:57.415Z,44.38
2019-05-18T11:02:31.971Z,44.42
2019-05-18T11:05:06.369Z,44.38
2019-05-18T11:07:40.101Z,44.86
2019-05-18T11:10:13.890Z,44.71
2019-05-18T11:12:47.589Z,44.69
2019-05-18T11:15:23.102Z,44.64
2019-05-18T11:17:57.031Z,44.46
2019-05-18T11:20:30.858Z,44.55
2019-05-18T11:23:04.629Z,44.47
2019-05-18T11:25:38.453Z,44.64
2019-05-18T11:28:12.699Z,46.08
2019-05-18T11:30:46.411Z,45.58
2019-05-18T11:33:20.158Z,44.69
2019-05-18T11:35:54.077Z,44.70
2019-05-18T11:38:27.859Z,44.57
2019-05-18T11:41:01.993Z,44.55
2019-05-18T11:43:35.833Z,44.70
2019-05-18T11:46:09.462Z,44.73
2019-05-18T11:48:43.306Z,44.82
2019-05-18T11:51:17.754Z,45.70
2019-05-18T11:53:58.222Z,45.32
2019-05-18T11:56:27.588Z,45.02
2019-05-18T11:59:01.374Z,45.16
2019-05-18T12:01:35.238Z,45.10
2019-05-18T12:04:09.192Z,44.80
2019-05-18T12:06:44.545Z,43.05
2019-05-18T12:09:18.281Z,44.75
2019-05-18T12:11:52.308Z,44.43
2019-05-18T12:14:26.102Z,44.45
2019-05-18T12:17:00.033Z,44.70
2019-05-18T12:19:35.935Z,45.47
2019-05-18T12:22:09.619Z,45.05
2019-05-18T12:24:43.425Z,45.90
2019-05-18T12:27:17.133Z,45.32
2019-05-18T12:29:50.886Z,45.11
2019-05-18T12:32:26.233Z,45.78
2019-05-18T12:34:59.992Z,45.18
2019-05-18T12:37:33.693Z,45.08
2019-05-18T12:40:07.821Z,45.08
2019-05-18T12:42:41.486Z,45.09
2019-05-18T12:45:16.387Z,45.24
2019-05-18T12:47:50.099Z,45.60
2019-05-18T12:50:23.838Z,45.73
2019-05-18T12:52:58.050Z,45.73
2019-05-18T12:55:32.201Z,45.63
2019-05-18T12:58:06.028Z,45.54
2019-05-18T13:00:39.790Z,45.65
2019-05-18T13:03:13.382Z,45.94
2019-05-18T13:05:47.101Z,46.15
2019-05-18T13:08:20.829Z,46.40
2019-05-18T13:10:54.581Z,46.49
2019-05-18T13:13:28.401Z,46.55
2019-05-18T13:16:02.477Z,46.72
2019-05-18T13:18:36.390Z,47.09
2019-05-18T13:21:10.111Z,47.32
2019-05-18T13:23:43.920Z,47.56
2019-05-18T13:26:17.718Z,47.85
2019-05-18T13:28:51.415Z,47.66
2019-05-18T13:31:25.194Z,47.64
2019-05-18T13:33:58.918Z,47.98
2019-05-18T13:36:32.965Z,47.67
2019-05-18T13:39:08.255Z,47.69
2019-05-18T13:41:43.881Z,47.30
2019-05-18T13:44:17.629Z,47.07
2019-05-18T13:46:51.400Z,47.73
2019-05-18T13:49:27.065Z,47.09
2019-05-18T13:52:00.899Z,47.10
2019-05-18T13:54:34.650Z,46.88
2019-05-18T13:57:08.493Z,47.01
2019-05-18T13:59:42.645Z,47.25
2019-05-18T14:02:16.429Z,47.12
2019-05-18T14:04:50.202Z,48.01
2019-05-18T14:07:24.154Z,47.20
2019-05-18T14:09:57.972Z,47.17
2019-05-18T14:12:31.955Z,47.58
2019-05-18T14:15:05.764Z,47.32
2019-05-18T14:17:39.720Z,46.91
2019-05-18T14:20:13.448Z,46.57
2019-05-18T14:22:47.120Z,45.22
2019-05-18T14:25:20.876Z,43.95
2019-05-18T14:27:56.004Z,42.26
2019-05-18T14:30:30.888Z,43.20
2019-05-18T14:33:04.638Z,41.42
2019-05-18T14:35:38.436Z,42.28
2019-05-18T14:38:12.443Z,43.93
2019-05-18T14:40:46.278Z,44.51
2019-05-18T14:43:20.138Z,44.45
2019-05-18T14:45:54.317Z,44.41
2019-05-18T14:48:28.193Z,44.43
2019-05-18T14:51:02.045Z,44.31
2019-05-18T14:53:35.820Z,39.20
2019-05-18T14:56:09.561Z,40.68
2019-05-18T14:58:43.303Z,39.58
2019-05-18T15:01:17.071Z,40.84
2019-05-18T15:03:50.898Z,39.31
2019-05-18T15:06:24.601Z,38.86
2019-05-18T15:08:58.449Z,42.42
2019-05-18T15:11:32.285Z,42.80
2019-05-18T15:14:06.152Z,42.46
2019-05-18T15:16:39.926Z,42.19
2019-05-18T15:19:13.676Z,42.35
2019-05-18T15:21:47.466Z,41.74
2019-05-18T15:24:21.099Z,41.82
2019-05-18T15:26:54.859Z,42.12
2019-05-18T15:29:29.318Z,41.83
2019-05-18T15:32:03.116Z,42.04
2019-05-18T15:34:36.946Z,41.67
2019-05-18T15:37:10.675Z,41.26
2019-05-18T15:39:45.237Z,41.44
2019-05-18T15:42:18.943Z,40.77
2019-05-18T15:44:53.035Z,41.35
2019-05-18T15:47:26.631Z,41.24
2019-05-18T15:50:00.254Z,41.32
2019-05-18T15:52:33.915Z,41.47
2019-05-18T15:55:07.788Z,41.46
2019-05-18T15:57:41.613Z,41.60
2019-05-18T16:00:15.378Z,40.96
2019-05-18T16:02:49.398Z,40.58
2019-05-18T16:05:23.116Z,39.90
2019-05-18T16:07:56.896Z,40.77
2019-05-18T16:10:30.589Z,40.79
2019-05-18T16:13:04.465Z,40.24
2019-05-18T16:15:38.419Z,40.95
2019-05-18T16:18:12.307Z,41.08
2019-05-18T16:20:46.010Z,41.09
2019-05-18T16:23:19.652Z,40.83
2019-05-18T16:25:53.525Z,40.97
2019-05-18T16:28:27.380Z,40.95
2019-05-18T16:31:01.154Z,40.94
2019-05-18T16:33:34.926Z,39.48
2019-05-18T16:36:08.703Z,40.23
2019-05-18T16:38:42.742Z,39.51
2019-05-18T16:41:16.466Z,39.75
2019-05-18T16:43:50.370Z,40.15
2019-05-18T16:46:24.210Z,40.38
2019-05-18T16:48:57.900Z,40.44
2019-05-18T16:51:31.836Z,40.43
2019-05-18T16:54:05.712Z,40.56
2019-05-18T16:56:39.546Z,40.55
2019-05-18T16:59:13.542Z,40.75
2019-05-18T17:01:47.401Z,40.70
2019-05-18T17:04:21.102Z,40.62
2019-05-18T17:06:54.822Z,40.66
2019-05-18T17:09:28.714Z,40.95
2019-05-18T17:12:03.082Z,41.16
2019-05-18T17:14:36.818Z,41.20
2019-05-18T17:17:10.597Z,41.35
2019-05-18T17:19:44.327Z,41.58
2019-05-18T17:22:18.139Z,41.51
2019-05-18T17:24:52.412Z,41.64
2019-05-18T17:27:26.181Z,41.94
2019-05-18T17:29:59.908Z,41.66
2019-05-18T17:32:33.973Z,41.64
2019-05-18T17:35:07.899Z,41.70
2019-05-18T17:37:42.340Z,41.74
2019-05-18T17:40:16.107Z,42.03
2019-05-18T17:42:49.845Z,42.24
2019-05-18T17:45:23.656Z,42.11
2019-05-18T17:47:57.443Z,42.01
2019-05-18T17:50:31.188Z,42.01
2019-05-18T17:53:05.035Z,42.07
2019-05-18T17:55:38.742Z,42.04
2019-05-18T17:58:12.931Z,42.03
2019-05-18T18:00:46.844Z,42.01
2019-05-18T18:03:20.492Z,42.15
2019-05-18T18:05:54.170Z,42.62
2019-05-18T18:08:27.999Z,42.21
2019-05-18T18:11:01.759Z,42.28
2019-05-18T18:13:35.476Z,42.30
2019-05-18T18:16:09.239Z,42.25
2019-05-18T18:18:43.004Z,42.41
2019-05-18T18:21:16.737Z,42.97
2019-05-18T18:23:54.890Z,43.18
2019-05-18T18:26:27.146Z,43.96
2019-05-18T18:29:04.168Z,43.62
2019-05-18T18:31:36.439Z,44.27
2019-05-18T18:34:10.193Z,43.16
2019-05-18T18:36:44.050Z,43.09
2019-05-18T18:39:17.807Z,42.88
2019-05-18T18:41:51.555Z,42.93
2019-05-18T18:44:25.321Z,43.03
2019-05-18T18:46:59.051Z,43.08
2019-05-18T18:49:32.963Z,43.50
2019-05-18T18:52:06.706Z,43.32
2019-05-18T18:54:40.415Z,43.28
2019-05-18T18:57:14.293Z,43.67
2019-05-18T18:59:48.043Z,43.34
2019-05-18T19:02:21.965Z,43.43
2019-05-18T19:04:55.928Z,43.30
2019-05-18T19:07:29.625Z,43.79
2019-05-18T19:10:03.451Z,43.45
2019-05-18T19:12:37.513Z,43.76
2019-05-18T19:15:11.324Z,43.93
2019-05-18T19:17:45.214Z,43.96
2019-05-18T19:20:18.934Z,44.08
2019-05-18T19:22:52.922Z,44.04
2019-05-18T19:25:26.626Z,43.75
2019-05-18T19:28:00.385Z,43.67
2019-05-18T19:30:34.145Z,43.55
2019-05-18T19:33:07.737Z,43.73
2019-05-18T19:35:42.032Z,43.83
2019-05-18T19:38:15.742Z,43.99
2019-05-18T19:40:49.743Z,44.07
2019-05-18T19:43:23.626Z,44.26
2019-05-18T19:45:58.587Z,44.34
2019-05-18T19:48:32.826Z,44.21
2019-05-18T19:51:06.823Z,44.45
2019-05-18T19:53:40.460Z,43.76
2019-05-18T19:56:14.273Z,43.65
2019-05-18T19:58:48.053Z,43.68
2019-05-18T20:01:21.778Z,43.52
2019-05-18T20:03:55.805Z,43.55
2019-05-18T20:06:29.536Z,43.64
2019-05-18T20:09:03.919Z,44.01
2019-05-18T20:11:37.798Z,43.71
2019-05-18T20:14:12.060Z,44.30
2019-05-18T20:16:46.071Z,43.86
2019-05-18T20:19:19.988Z,43.97
2019-05-18T20:21:53.750Z,43.65
2019-05-18T20:24:27.574Z,43.54
2019-05-18T20:27:01.688Z,43.54
2019-05-18T20:29:37.040Z,43.84
2019-05-18T20:32:10.800Z,44.25
2019-05-18T20:34:44.884Z,43.84
2019-05-18T20:37:18.609Z,43.98
2019-05-18T20:39:52.856Z,43.98
2019-05-18T20:42:26.548Z,44.22
2019-05-18T20:45:00.377Z,43.97
2019-05-18T20:47:34.125Z,44.15
2019-05-18T20:50:08.352Z,43.73
2019-05-18T20:52:42.032Z,43.84
2019-05-18T20:55:16.064Z,43.89
2019-05-18T20:57:49.776Z,45.36
2019-05-18T21:00:23.636Z,45.00
2019-05-18T21:02:57.400Z,44.85
2019-05-18T21:05:31.255Z,44.58
2019-05-18T21:08:05.076Z,44.26
2019-05-18T21:10:38.981Z,44.90
2019-05-18T21:13:13.147Z,44.68
2019-05-18T21:15:46.947Z,44.86
2019-05-18T21:18:21.671Z,44.67
2019-05-18T21:20:55.531Z,44.76
2019-05-18T21:23:29.211Z,44.54
2019-05-18T21:26:04.376Z,44.77
2019-05-18T21:28:38.115Z,44.95
2019-05-18T21:31:12.251Z,44.71
2019-05-18T21:33:45.860Z,44.50
2019-05-18T21:36:19.606Z,44.73
2019-05-18T21:38:53.403Z,44.65
2019-05-18T21:41:27.196Z,44.80
2019-05-18T21:44:00.907Z,44.90
2019-05-18T21:46:34.661Z,45.51
2019-05-18T21:49:08.397Z,45.06
2019-05-18T21:51:42.102Z,45.27
2019-05-18T21:54:15.827Z,44.76
2019-05-18T21:56:49.550Z,45.13
2019-05-18T21:59:23.310Z,45.00
2019-05-18T22:01:56.934Z,44.76
2019-05-18T22:04:30.888Z,45.28
2019-05-18T22:07:04.759Z,45.30
2019-05-18T22:09:39.998Z,44.74
2019-05-18T22:12:13.815Z,45.27
2019-05-18T22:14:47.596Z,45.10
2019-05-18T22:17:21.912Z,44.80
2019-05-18T22:19:55.759Z,45.11
2019-05-18T22:22:29.495Z,45.55
2019-05-18T22:25:03.459Z,45.01
2019-05-18T22:27:37.200Z,45.14
2019-05-18T22:30:11.001Z,45.23
2019-05-18T22:32:44.961Z,45.06
2019-05-18T22:35:18.680Z,45.33
2019-05-18T22:37:52.844Z,45.14
2019-05-18T22:40:26.704Z,45.42
2019-05-18T22:43:00.399Z,45.30
2019-05-18T22:45:35.350Z,45.28
2019-05-18T22:48:09.077Z,45.30
2019-05-18T22:50:43.117Z,45.53
2019-05-18T22:53:16.946Z,45.41
2019-05-18T22:55:50.764Z,45.10
2019-05-18T22:58:24.692Z,45.38
2019-05-18T23:00:58.523Z,45.13
2019-05-18T23:03:32.602Z,44.78
2019-05-18T23:06:06.508Z,44.98
2019-05-18T23:08:40.248Z,44.79
2019-05-18T23:11:14.336Z,44.87
2019-05-18T23:13:48.156Z,44.80
2019-05-18T23:16:21.967Z,44.65
2019-05-18T23:18:57.228Z,44.87
2019-05-18T23:21:31.634Z,44.78
2019-05-18T23:24:05.382Z,44.95
2019-05-18T23:26:39.188Z,44.73
2019-05-18T23:29:12.948Z,44.77
2019-05-18T23:31:46.653Z,44.63
2019-05-18T23:34:20.487Z,44.62
2019-05-18T23:36:54.500Z,44.67
2019-05-18T23:39:28.249Z,45.02
2019-05-18T23:42:07.959Z,44.67
2019-05-18T23:44:42.781Z,44.59
2019-05-18T23:47:16.458Z,44.69
2019-05-18T23:49:50.211Z,44.85
2019-05-18T23:52:23.997Z,44.61
2019-05-18T23:54:57.761Z,44.90
2019-05-18T23:57:31.458Z,44.62
